Time;durP1;ratioP1;P1;durP2;ratioP2;P2;SDS_P1;SDS_P2;PMS_P1;PMS_P2;Temp;Humidity;BMP_temperature;BMP_pressure;BME280_temperature;BME280_humidity;BME280_pressure;Samples;Min_cycle;Max_cycle;Signal;HPM_P1;HPM_P2
2021/10/13 00:00:33;;;;;;;16.67;5.40;;;;;;;6.92;86.56;101966.84;5050591;28;20044;-69
2021/10/13 00:03:00;;;;;;;20.40;5.90;;;;;;;6.99;86.31;101966.47;5052074;28;20045;-69
2021/10/13 00:05:27;;;;;;;16.70;5.30;;;;;;;6.92;86.29;101972.13;5053314;28;20060;-69
2021/10/13 00:07:53;;;;;;;15.68;5.45;;;;;;;6.91;86.78;101964.31;5055211;28;20041;-69
2021/10/13 00:10:20;;;;;;;21.40;5.78;;;;;;;6.94;86.99;101964.13;5055239;28;20091;-69
2021/10/13 00:12:47;;;;;;;18.50;5.88;;;;;;;6.90;86.23;101970.56;5055037;28;20045;-68
2021/10/13 00:15:14;;;;;;;14.82;5.55;;;;;;;6.93;86.35;101970.38;5055361;28;20098;-69
2021/10/13 00:17:40;;;;;;;23.17;5.75;;;;;;;6.89;86.52;101967.06;5055294;28;20037;-69
2021/10/13 00:20:08;;;;;;;20.67;6.57;;;;;;;6.89;86.01;101966.22;5055137;28;20041;-68
2021/10/13 00:22:35;;;;;;;21.63;5.70;;;;;;;6.92;86.29;101968.66;5055082;28;20055;-69
2021/10/13 00:25:03;;;;;;;20.02;5.50;;;;;;;6.88;86.37;101973.28;5054712;28;20045;-68
2021/10/13 00:27:30;;;;;;;19.92;5.60;;;;;;;6.82;85.76;101970.19;5035082;28;20045;-70
2021/10/13 00:29:56;;;;;;;12.57;5.13;;;;;;;6.76;86.76;101974.06;5034987;28;20041;-68
2021/10/13 00:32:23;;;;;;;16.92;6.15;;;;;;;6.79;85.62;101979.16;5035009;28;20041;-68
2021/10/13 00:34:50;;;;;;;21.50;5.85;;;;;;;6.73;86.00;101972.50;5040036;28;20053;-68
2021/10/13 00:37:18;;;;;;;18.25;5.57;;;;;;;6.69;86.51;101967.50;5047397;28;20048;-69
2021/10/13 00:39:45;;;;;;;13.70;5.50;;;;;;;6.67;86.06;101975.50;5053635;28;20045;-69
2021/10/13 00:42:11;;;;;;;16.17;5.55;;;;;;;6.59;86.88;101969.06;5053960;28;20052;-69
2021/10/13 00:44:38;;;;;;;18.00;5.90;;;;;;;6.62;86.77;101972.34;5052885;28;20037;-69
2021/10/13 00:47:05;;;;;;;17.25;6.25;;;;;;;6.64;86.50;101972.22;5036500;28;20052;-68
2021/10/13 00:49:32;;;;;;;16.10;6.53;;;;;;;6.59;86.55;101961.97;5054041;28;20041;-69
2021/10/13 00:52:00;;;;;;;16.75;6.43;;;;;;;6.59;86.49;101967.25;5053992;28;20126;-68
2021/10/13 00:54:27;;;;;;;16.80;6.03;;;;;;;6.53;86.25;101978.19;5054545;28;20045;-68
2021/10/13 00:56:54;;;;;;;18.35;6.30;;;;;;;6.57;87.09;101968.28;5054153;28;20051;-68
2021/10/13 00:59:20;;;;;;;15.38;5.93;;;;;;;6.60;85.81;101978.63;5054390;28;20052;-68
2021/10/13 01:01:56;;;;;;;18.50;6.00;;;;;;;6.60;86.20;101973.38;5052970;28;20044;-69
2021/10/13 01:05:02;;;;;;;18.88;5.65;;;;;;;6.60;86.52;101968.94;5054258;28;20102;-69
2021/10/13 01:07:41;;;;;;;21.30;5.80;;;;;;;6.54;85.58;101978.09;5051817;28;20486;-68
2021/10/13 01:10:16;;;;;;;16.88;6.15;;;;;;;6.52;86.27;101971.22;5053154;28;20098;-69
2021/10/13 01:15:56;;;;;;;21.13;6.03;;;;;;;6.50;85.94;101966.03;5090189;28;20413;-68
2021/10/13 01:18:49;;;;;;;18.70;6.72;;;;;;;6.43;86.53;101974.44;5110105;28;20105;-68
2021/10/13 01:21:41;;;;;;;18.15;6.38;;;;;;;6.45;86.50;101970.75;5109851;28;20035;-68
2021/10/13 01:24:35;;;;;;;30.25;7.68;;;;;;;6.38;86.19;101979.16;5109296;28;20126;-68
2021/10/13 01:27:18;;;;;;;18.58;6.13;;;;;;;6.37;85.49;101980.97;5110085;28;20047;-68
2021/10/13 01:29:47;;;;;;;20.08;6.30;;;;;;;6.39;86.16;101978.22;5109781;28;20164;-69
2021/10/13 01:32:20;;;;;;;16.00;6.18;;;;;;;6.31;86.23;101976.06;5091999;28;20040;-68
2021/10/13 01:34:48;;;;;;;19.92;6.25;;;;;;;6.34;85.51;101979.34;5108708;28;20462;-69
2021/10/13 01:37:24;;;;;;;15.38;6.20;;;;;;;6.34;85.05;101981.97;5107825;28;20044;-69
2021/10/13 01:39:55;;;;;;;17.58;5.93;;;;;;;6.32;85.99;101975.97;5109947;28;20076;-69
2021/10/13 01:42:22;;;;;;;16.27;5.93;;;;;;;6.28;85.89;101976.25;5093675;28;20051;-69
2021/10/13 01:44:55;;;;;;;13.27;5.90;;;;;;;6.20;86.23;101968.81;5079786;28;20078;-69
2021/10/13 01:47:23;;;;;;;20.25;6.25;;;;;;;6.21;85.97;101974.94;5075745;28;20046;-69
2021/10/13 01:49:55;;;;;;;13.02;5.57;;;;;;;6.21;85.92;101978.44;5074996;28;20048;-69
2021/10/13 01:52:25;;;;;;;16.67;5.80;;;;;;;6.25;85.52;101985.19;5088811;28;20040;-68
2021/10/13 01:54:56;;;;;;;18.85;7.13;;;;;;;6.21;85.72;101985.50;5088650;28;20071;-69
2021/10/13 01:57:24;;;;;;;19.50;7.45;;;;;;;6.18;85.31;101990.94;5087768;28;20040;-68
2021/10/13 01:59:56;;;;;;;15.40;6.70;;;;;;;6.17;85.40;101994.50;5088445;28;20548;-69
2021/10/13 02:02:31;;;;;;;17.88;6.57;;;;;;;6.12;85.51;101994.81;5087610;28;20523;-68
2021/10/13 02:05:00;;;;;;;14.57;6.25;;;;;;;6.07;85.87;102000.34;5071996;28;20064;-68
2021/10/13 02:07:29;;;;;;;13.15;6.15;;;;;;;6.03;86.26;101998.00;5088878;28;20048;-68
2021/10/13 02:10:01;;;;;;;18.02;6.45;;;;;;;6.03;85.95;102000.63;5088580;28;20036;-68
2021/10/13 02:12:32;;;;;;;18.75;6.70;;;;;;;6.00;85.92;101996.38;5084218;28;20047;-68
2021/10/13 02:15:02;;;;;;;16.65;6.57;;;;;;;6.09;85.61;101994.97;5067035;28;20040;-68
2021/10/13 02:17:29;;;;;;;14.95;6.55;;;;;;;6.07;85.80;102002.13;5088216;28;20040;-68
2021/10/13 02:19:57;;;;;;;14.00;5.75;;;;;;;6.07;86.27;102004.78;5087910;28;20068;-69
2021/10/13 02:22:29;;;;;;;13.43;6.30;;;;;;;6.08;85.37;102001.22;5088994;28;20041;-68
2021/10/13 02:24:56;;;;;;;13.10;5.95;;;;;;;6.05;85.00;102004.03;5085996;28;20040;-69
2021/10/13 02:27:39;;;;;;;17.92;6.40;;;;;;;6.07;85.24;102010.03;5075144;28;20044;-69
2021/10/13 02:30:08;;;;;;;19.75;6.53;;;;;;;6.11;85.57;102006.28;5074634;28;20044;-69
2021/10/13 02:32:34;;;;;;;22.05;6.72;;;;;;;6.04;85.71;101999.69;5075255;28;20562;-69
2021/10/13 02:35:04;;;;;;;16.38;6.80;;;;;;;6.16;85.43;102009.47;5071835;28;20047;-68
2021/10/13 02:37:31;;;;;;;13.98;6.28;;;;;;;6.11;85.95;102014.19;5075006;28;20054;-68
2021/10/13 02:39:58;;;;;;;16.42;6.60;;;;;;;6.09;85.72;102016.94;5075063;28;20493;-68
2021/10/13 02:42:24;;;;;;;14.57;6.30;;;;;;;6.04;85.02;102020.75;5057234;28;20051;-68
2021/10/13 02:44:51;;;;;;;17.08;6.60;;;;;;;6.03;85.57;102027.81;5064889;28;20043;-68
2021/10/13 02:47:25;;;;;;;16.77;6.88;;;;;;;6.02;85.33;102034.06;5057180;28;20033;-68
2021/10/13 02:50:22;;;;;;;18.10;6.60;;;;;;;6.02;86.42;102036.69;5064202;28;20049;-69
2021/10/13 02:53:02;;;;;;;17.30;6.65;;;;;;;6.04;85.48;102039.19;5073582;28;20135;-69
2021/10/13 02:55:33;;;;;;;17.00;6.25;;;;;;;5.98;85.14;102039.59;5077129;28;20044;-68
2021/10/13 02:58:30;;;;;;;14.75;6.30;;;;;;;5.92;86.05;102038.13;5062678;28;20043;-68
2021/10/13 03:01:01;;;;;;;15.52;6.05;;;;;;;5.90;86.09;102034.75;5073990;28;20048;-69
2021/10/13 03:03:34;;;;;;;19.48;6.53;;;;;;;5.89;85.79;102038.31;5071958;28;20048;-69
2021/10/13 03:06:04;;;;;;;24.13;7.22;;;;;;;5.88;85.96;102032.19;5059530;28;20048;-70
2021/10/13 03:08:35;;;;;;;16.38;6.55;;;;;;;5.90;85.99;102040.00;5073367;28;20060;-69
2021/10/13 03:11:02;;;;;;;18.23;6.70;;;;;;;5.86;85.70;102031.44;5073948;28;20509;-70
2021/10/13 03:13:33;;;;;;;18.38;7.05;;;;;;;5.77;86.67;102042.53;5073637;28;20052;-69
2021/10/13 03:16:04;;;;;;;16.23;6.47;;;;;;;5.78;85.70;102038.94;5072762;28;20045;-69
2021/10/13 03:18:35;;;;;;;16.80;7.47;;;;;;;5.82;85.78;102043.13;5091929;28;20071;-69
2021/10/13 03:21:04;;;;;;;14.88;6.55;;;;;;;5.81;86.04;102046.69;5094159;28;20165;-69
2021/10/13 03:23:31;;;;;;;18.45;7.03;;;;;;;5.80;86.08;102049.41;5094340;28;20047;-68
2021/10/13 03:26:08;;;;;;;15.35;6.63;;;;;;;5.82;86.19;102043.13;5094187;28;20044;-68
2021/10/13 03:28:37;;;;;;;23.60;6.82;;;;;;;5.88;86.48;102052.44;5093925;28;20523;-68
2021/10/13 03:31:04;;;;;;;26.25;7.22;;;;;;;5.89;85.94;102052.31;5092349;28;20047;-68
2021/10/13 03:33:32;;;;;;;15.68;7.00;;;;;;;5.92;86.56;102046.88;5094281;28;20127;-68
2021/10/13 03:35:59;;;;;;;15.70;7.00;;;;;;;6.00;86.02;102053.50;5085538;28;20090;-68
2021/10/13 03:38:26;;;;;;;21.50;7.97;;;;;;;5.98;86.57;102063.28;5072937;28;20064;-68
2021/10/13 03:40:53;;;;;;;15.55;6.47;;;;;;;5.99;87.24;102060.56;5055498;28;20071;-68
2021/10/13 03:43:20;;;;;;;16.65;7.13;;;;;;;6.01;86.96;102055.22;5072548;28;20048;-68
2021/10/13 03:45:47;;;;;;;15.38;6.72;;;;;;;6.08;86.22;102053.91;5072411;28;20040;-68
2021/10/13 03:48:13;;;;;;;21.73;7.40;;;;;;;6.05;86.79;102051.44;5063601;28;20041;-68
2021/10/13 03:50:40;;;;;;;25.83;7.53;;;;;;;6.10;86.91;102059.94;5057486;28;20069;-69
2021/10/13 03:53:07;;;;;;;21.35;7.28;;;;;;;6.15;86.19;102063.13;5059679;28;20059;-68
2021/10/13 03:55:34;;;;;;;22.40;6.93;;;;;;;6.21;85.89;102064.56;5061387;28;20033;-69
2021/10/13 03:58:01;;;;;;;23.20;8.15;;;;;;;6.22;86.87;102067.09;5072839;28;20040;-68
2021/10/13 04:00:28;;;;;;;18.95;7.82;;;;;;;6.32;86.50;102080.53;5051977;28;20118;-69
2021/10/13 04:02:55;;;;;;;17.58;7.72;;;;;;;6.33;87.01;102072.56;5067350;28;20087;-68
2021/10/13 04:05:22;;;;;;;22.15;7.45;;;;;;;6.36;87.13;102078.56;5070040;28;20050;-68
2021/10/13 04:07:48;;;;;;;16.88;7.13;;;;;;;6.39;87.05;102076.59;5072840;28;20057;-69
2021/10/13 04:10:15;;;;;;;17.48;7.28;;;;;;;6.45;86.46;102084.13;5056990;28;20047;-68
2021/10/13 04:12:44;;;;;;;22.77;7.60;;;;;;;6.48;86.11;102078.66;5071324;28;20040;-69
2021/10/13 04:15:12;;;;;;;22.08;7.97;;;;;;;6.46;86.27;102082.34;5072479;28;20451;-68
2021/10/13 04:17:38;;;;;;;13.77;7.72;;;;;;;6.40;86.92;102067.72;5071090;28;20049;-68
2021/10/13 04:20:08;;;;;;;20.35;8.32;;;;;;;6.36;87.25;102078.56;5072701;28;20098;-68
2021/10/13 04:22:36;;;;;;;18.67;8.07;;;;;;;6.27;86.87;102082.59;5104786;28;20068;-68
2021/10/13 04:25:03;;;;;;;15.93;8.35;;;;;;;6.26;87.70;102096.75;5070977;28;20040;-68
2021/10/13 04:27:31;;;;;;;14.77;7.60;;;;;;;6.33;86.97;102083.09;5056421;28;20041;-68
2021/10/13 04:29:57;;;;;;;19.75;8.05;;;;;;;6.41;87.46;102090.53;5051333;28;20045;-68
2021/10/13 04:32:24;;;;;;;14.98;7.40;;;;;;;6.49;87.16;102088.28;5065926;28;20052;-68
2021/10/13 04:34:51;;;;;;;19.42;8.07;;;;;;;6.47;87.49;102090.13;5054661;28;20070;-68
2021/10/13 04:37:18;;;;;;;18.67;8.27;;;;;;;6.54;86.60;102087.97;5071837;28;20055;-68
2021/10/13 04:39:45;;;;;;;18.98;7.78;;;;;;;6.60;87.12;102095.50;5070769;28;20513;-69
2021/10/13 04:42:11;;;;;;;17.55;7.95;;;;;;;6.61;87.12;102099.00;5051198;28;20460;-68
2021/10/13 04:44:38;;;;;;;17.65;8.60;;;;;;;6.54;87.01;102101.16;5066007;28;20078;-68
2021/10/13 04:47:05;;;;;;;22.52;7.70;;;;;;;6.54;87.00;102096.72;5050994;28;20041;-68
2021/10/13 04:49:33;;;;;;;18.00;7.93;;;;;;;6.61;86.72;102101.66;5060476;28;20049;-68
2021/10/13 04:52:00;;;;;;;16.30;7.93;;;;;;;6.57;86.25;102095.72;5070869;28;20044;-68
2021/10/13 04:54:27;;;;;;;23.02;7.68;;;;;;;6.54;86.56;102095.88;5070984;28;20090;-69
2021/10/13 04:56:54;;;;;;;16.75;7.65;;;;;;;6.56;86.16;102093.16;5071981;28;20044;-68
2021/10/13 04:59:21;;;;;;;21.25;8.38;;;;;;;6.56;86.40;102088.72;5069111;28;20090;-69
2021/10/13 05:01:47;;;;;;;21.88;7.78;;;;;;;6.54;86.18;102085.34;5021874;28;20521;-68
2021/10/13 05:04:15;;;;;;;18.17;8.27;;;;;;;6.58;86.27;102086.00;5063036;28;20118;-69
2021/10/13 05:06:43;;;;;;;24.85;8.10;;;;;;;6.51;86.48;102090.78;5070488;28;20040;-68
2021/10/13 05:09:11;;;;;;;17.60;8.40;;;;;;;6.59;86.51;102092.97;5071949;28;20037;-69
2021/10/13 05:11:38;;;;;;;21.52;8.15;;;;;;;6.59;86.85;102096.47;5071798;28;20036;-68
2021/10/13 05:14:05;;;;;;;16.38;7.95;;;;;;;6.56;86.73;102093.16;5071343;28;20056;-70
2021/10/13 05:16:32;;;;;;;15.95;7.72;;;;;;;6.54;85.95;102096.72;5070096;28;20131;-68
2021/10/13 05:18:59;;;;;;;20.27;8.45;;;;;;;6.57;85.24;102100.13;5067302;28;20041;-69
2021/10/13 05:21:26;;;;;;;21.67;7.85;;;;;;;6.44;86.10;102098.25;5071855;28;20041;-68
2021/10/13 05:23:53;;;;;;;18.63;8.45;;;;;;;6.42;86.06;102096.63;5053803;28;20053;-68
2021/10/13 05:26:20;;;;;;;19.27;8.43;;;;;;;6.26;86.22;102108.13;5072184;28;20489;-68
2021/10/13 05:28:47;;;;;;;21.13;8.35;;;;;;;6.28;86.05;102108.88;5070924;28;20043;-68
2021/10/13 05:31:14;;;;;;;16.25;7.75;;;;;;;6.30;86.54;102109.63;5070758;28;20071;-68
2021/10/13 05:33:40;;;;;;;18.75;8.07;;;;;;;6.32;85.83;102120.09;5063842;28;20048;-68
2021/10/13 05:36:07;;;;;;;15.98;7.10;;;;;;;6.26;86.22;102118.66;5072036;28;20059;-68
2021/10/13 05:38:43;;;;;;;23.38;8.27;;;;;;;6.24;85.67;102114.41;5071898;28;20409;-68
2021/10/13 05:41:10;;;;;;;22.63;9.13;;;;;;;6.26;85.33;102126.56;5054356;28;20071;-68
2021/10/13 05:43:37;;;;;;;16.83;8.15;;;;;;;6.13;85.63;102125.59;5071963;28;20047;-68
2021/10/13 05:46:04;;;;;;;17.63;7.70;;;;;;;6.14;85.67;102130.78;5071509;28;20040;-68
2021/10/13 05:48:33;;;;;;;18.25;8.38;;;;;;;6.09;86.21;102126.72;5071949;28;20048;-69
2021/10/13 05:51:00;;;;;;;19.35;8.70;;;;;;;6.11;85.64;102130.09;5071871;28;20041;-69
2021/10/13 05:53:28;;;;;;;19.50;8.02;;;;;;;6.09;86.13;102129.34;5061248;28;20485;-68
2021/10/13 05:55:55;;;;;;;19.13;8.88;;;;;;;6.03;86.36;102137.63;5054175;28;20041;-68
2021/10/13 05:58:24;;;;;;;20.40;8.73;;;;;;;5.95;86.43;102141.56;5058450;28;20040;-68
2021/10/13 06:00:53;;;;;;;22.52;8.90;;;;;;;5.99;86.10;102147.50;5048796;28;20050;-68
2021/10/13 06:03:21;;;;;;;21.25;8.30;;;;;;;5.78;87.16;102146.91;5056427;28;20044;-68
2021/10/13 06:05:48;;;;;;;21.50;8.68;;;;;;;5.82;87.46;102147.59;5063637;28;20501;-68
2021/10/13 06:08:16;;;;;;;18.08;9.32;;;;;;;5.94;87.52;102150.34;5069318;28;20108;-68
2021/10/13 06:10:42;;;;;;;18.75;9.10;;;;;;;6.05;87.29;102147.13;5062997;28;20115;-68
2021/10/13 06:13:09;;;;;;;19.45;9.18;;;;;;;6.13;86.96;102154.56;5074027;28;20048;-68
2021/10/13 06:15:37;;;;;;;20.88;9.40;;;;;;;6.20;86.66;102157.69;5074851;28;20393;-69
2021/10/13 06:18:07;;;;;;;18.00;9.40;;;;;;;6.33;86.82;102161.28;5073535;28;20036;-68
2021/10/13 06:20:34;;;;;;;22.55;9.50;;;;;;;6.38;87.14;102171.56;5073801;28;20040;-68
2021/10/13 06:23:02;;;;;;;21.42;9.38;;;;;;;6.42;87.50;102173.09;5074941;28;20048;-68
2021/10/13 06:25:29;;;;;;;26.90;10.15;;;;;;;6.48;87.01;102170.09;5074002;28;20055;-68
2021/10/13 06:27:56;;;;;;;22.27;10.07;;;;;;;6.66;86.66;102170.78;5057196;28;20106;-68
2021/10/13 06:30:23;;;;;;;21.45;10.02;;;;;;;6.69;86.58;102173.19;5073164;28;20045;-68
2021/10/13 06:32:50;;;;;;;27.52;11.00;;;;;;;6.64;87.25;102181.41;5066526;28;20486;-68
2021/10/13 06:35:16;;;;;;;24.83;9.63;;;;;;;6.42;88.00;102192.41;5070594;28;20034;-68
2021/10/13 06:37:46;;;;;;;25.88;10.30;;;;;;;6.54;88.29;102196.91;5055379;28;20049;-68
2021/10/13 06:40:13;;;;;;;28.42;10.38;;;;;;;6.67;87.49;102191.75;5070022;28;20082;-69
2021/10/13 06:42:41;;;;;;;25.67;9.85;;;;;;;6.65;86.88;102192.78;5080937;28;20123;-68
2021/10/13 06:45:09;;;;;;;23.05;9.85;;;;;;;6.78;86.80;102191.09;5085466;28;20116;-66
2021/10/13 06:47:36;;;;;;;20.27;10.10;;;;;;;6.88;87.30;102181.69;5086494;28;20040;-65
2021/10/13 06:50:06;;;;;;;30.10;11.23;;;;;;;6.81;87.14;102192.72;5051032;28;20052;-66
2021/10/13 06:53:09;;;;;;;28.85;9.88;;;;;;;6.84;86.42;102195.16;5064510;28;20571;-66
2021/10/13 06:56:00;;;;;;;21.60;9.00;;;;;;;6.96;86.80;102190.91;5083612;28;20104;-65
2021/10/13 06:58:28;;;;;;;24.98;9.90;;;;;;;7.01;86.99;102191.50;5084147;28;20044;-66
2021/10/13 07:01:07;;;;;;;23.63;10.18;;;;;;;7.07;86.93;102196.38;5095987;23;20052;-66
2021/10/13 07:03:34;;;;;;;20.95;10.02;;;;;;;7.12;85.88;102194.31;5089824;28;20186;-65
2021/10/13 07:06:01;;;;;;;23.92;10.27;;;;;;;7.06;85.72;102194.69;5071038;28;20044;-66
2021/10/13 07:08:28;;;;;;;22.52;10.18;;;;;;;7.02;86.55;102194.03;5086591;28;20044;-67
2021/10/13 07:10:54;;;;;;;24.23;9.15;;;;;;;7.13;85.64;102195.13;5063662;28;20044;-66
2021/10/13 07:13:21;;;;;;;22.75;9.38;;;;;;;7.14;86.19;102188.94;5080805;28;20040;-66
2021/10/13 07:15:48;;;;;;;21.85;9.73;;;;;;;7.10;86.73;102183.00;5072943;28;20048;-66
2021/10/13 07:18:15;;;;;;;23.02;8.98;;;;;;;7.09;85.52;102197.13;5095759;28;20048;-66
2021/10/13 07:20:42;;;;;;;28.75;10.00;;;;;;;7.02;86.62;102198.44;5079481;28;20135;-67
2021/10/13 07:23:09;;;;;;;20.75;9.65;;;;;;;7.08;86.70;102212.13;5076811;28;20058;-66
2021/10/13 07:25:37;;;;;;;24.50;10.82;;;;;;;7.15;87.32;102214.34;5081716;28;20060;-67
2021/10/13 07:28:06;;;;;;;26.20;9.70;;;;;;;7.35;85.97;102216.63;5077872;28;20631;-66
2021/10/13 07:30:33;;;;;;;21.60;10.23;;;;;;;7.39;86.14;102210.19;5064160;28;20519;-67
2021/10/13 07:33:00;;;;;;;26.55;10.38;;;;;;;7.47;84.82;102205.25;5085537;28;20045;-66
2021/10/13 07:35:29;;;;;;;22.48;9.63;;;;;;;7.41;85.39;102207.47;5063527;28;20040;-66
2021/10/13 07:37:57;;;;;;;22.83;9.77;;;;;;;7.38;86.79;102221.69;5076261;28;20131;-67
2021/10/13 07:40:24;;;;;;;21.30;9.43;;;;;;;7.40;87.36;102218.94;5059287;28;20523;-67
2021/10/13 07:42:51;;;;;;;28.27;11.35;;;;;;;7.55;87.32;102217.13;5089487;28;20068;-66
2021/10/13 07:45:18;;;;;;;27.33;9.75;;;;;;;7.60;85.48;102213.22;5074558;28;20127;-67
2021/10/13 07:47:46;;;;;;;22.63;9.90;;;;;;;7.66;85.97;102217.31;5078192;28;20040;-66
2021/10/13 07:50:13;;;;;;;28.95;10.65;;;;;;;7.80;85.16;102211.94;5073689;28;20036;-66
2021/10/13 07:52:40;;;;;;;35.03;10.98;;;;;;;7.91;84.77;102213.88;5078325;28;20040;-66
2021/10/13 07:55:07;;;;;;;23.50;9.63;;;;;;;7.77;85.56;102214.81;5076139;28;20044;-66
2021/10/13 07:57:34;;;;;;;20.50;10.07;;;;;;;7.93;85.64;102217.31;5070759;28;20048;-67
2021/10/13 08:00:01;;;;;;;25.20;10.32;;;;;;;8.03;85.42;102223.66;5081560;28;20052;-67
2021/10/13 08:02:32;;;;;;;29.98;10.55;;;;;;;8.17;85.05;102221.91;5071633;28;20048;-67
2021/10/13 08:04:59;;;;;;;24.48;9.75;;;;;;;8.27;85.52;102220.34;5070272;28;20052;-67
2021/10/13 08:07:26;;;;;;;21.88;9.38;;;;;;;8.39;84.75;102226.59;5074837;28;20119;-66
2021/10/13 08:09:52;;;;;;;27.00;10.43;;;;;;;8.40;83.61;102228.28;5071308;28;20036;-68
2021/10/13 08:12:20;;;;;;;26.73;9.30;;;;;;;8.44;84.26;102227.16;5079995;28;20114;-69
2021/10/13 08:14:46;;;;;;;30.38;10.32;;;;;;;8.67;83.69;102230.88;5087856;28;20048;-68
2021/10/13 08:17:13;;;;;;;18.42;9.27;;;;;;;8.67;82.19;102235.34;5074660;28;20044;-69
2021/10/13 08:19:40;;;;;;;23.70;9.23;;;;;;;8.62;83.25;102230.34;5082782;28;20577;-69
2021/10/13 08:22:07;;;;;;;18.30;9.00;;;;;;;8.72;82.67;102243.81;5053957;28;20037;-68
2021/10/13 08:24:34;;;;;;;22.58;9.65;;;;;;;8.71;82.72;102247.41;5067932;28;20507;-67
2021/10/13 08:27:02;;;;;;;17.65;9.57;;;;;;;8.77;82.65;102249.63;5070197;28;20067;-69
2021/10/13 08:29:29;;;;;;;24.55;8.73;;;;;;;8.77;82.29;102258.41;5072859;28;20119;-68
2021/10/13 08:31:56;;;;;;;21.33;9.43;;;;;;;8.78;82.04;102256.59;5075302;28;20046;-69
2021/10/13 08:34:23;;;;;;;25.15;10.07;;;;;;;8.74;83.09;102261.25;5074470;28;20043;-69
2021/10/13 08:36:50;;;;;;;25.70;9.50;;;;;;;8.87;81.66;102261.25;5074544;28;20496;-69
2021/10/13 08:39:16;;;;;;;23.80;10.30;;;;;;;8.77;82.52;102263.72;5083214;28;20059;-69
2021/10/13 08:41:43;;;;;;;21.38;9.85;;;;;;;8.78;82.52;102261.91;5060689;28;20044;-68
2021/10/13 08:44:13;;;;;;;22.70;9.43;;;;;;;8.71;82.48;102263.28;5037384;28;20044;-68
2021/10/13 08:46:40;;;;;;;32.70;9.75;;;;;;;8.70;82.46;102259.78;5072446;28;20036;-69
2021/10/13 08:49:07;;;;;;;23.27;10.30;;;;;;;8.82;82.95;102258.09;5091700;28;20037;-69
2021/10/13 08:51:35;;;;;;;20.00;9.45;;;;;;;8.86;83.55;102259.59;5084872;28;20052;-68
2021/10/13 08:54:03;;;;;;;20.90;10.05;;;;;;;8.84;83.39;102258.81;5077642;28;20040;-68
2021/10/13 08:56:30;;;;;;;22.75;10.10;;;;;;;8.99;82.97;102257.78;5073257;28;20044;-69
2021/10/13 08:58:57;;;;;;;26.63;11.30;;;;;;;9.11;83.52;102260.50;5072165;28;20041;-69
2021/10/13 09:01:24;;;;;;;23.85;10.50;;;;;;;9.25;83.79;102255.09;5076568;28;20052;-68
2021/10/13 09:04:00;;;;;;;22.25;9.95;;;;;;;9.26;81.87;102259.47;5071621;28;20102;-68
2021/10/13 09:06:30;;;;;;;18.52;10.07;;;;;;;9.33;82.52;102260.72;5063777;28;20036;-67
2021/10/13 09:09:12;;;;;;;23.95;10.10;;;;;;;9.43;81.89;102262.72;5071688;28;20527;-68
2021/10/13 09:11:45;;;;;;;22.63;9.65;;;;;;;9.69;80.67;102263.47;5070492;28;20491;-68
2021/10/13 09:14:16;;;;;;;22.63;9.55;;;;;;;9.71;81.13;102257.09;5080323;28;20497;-68
2021/10/13 09:22:14;;;;;;;25.38;10.43;;;;;;;10.00;82.54;102256.78;5137182;27;20405;-68
2021/10/13 09:24:43;;;;;;;23.25;9.60;;;;;;;10.08;81.01;102264.19;5129825;27;20454;-68
2021/10/13 09:27:30;;;;;;;23.77;9.93;;;;;;;10.30;81.14;102272.22;5120965;27;20495;-67
2021/10/13 09:30:04;;;;;;;21.52;9.77;;;;;;;10.22;82.21;102271.09;5106842;28;20052;-68
2021/10/13 09:32:31;;;;;;;21.77;9.98;;;;;;;10.43;80.47;102266.88;5123313;28;20093;-68
2021/10/13 09:34:58;;;;;;;17.52;8.48;;;;;;;10.68;78.86;102267.66;5111906;27;20032;-67
2021/10/13 09:37:45;;;;;;;24.92;9.32;;;;;;;10.66;77.83;102264.25;5128656;27;20060;-67
2021/10/13 09:40:13;;;;;;;23.27;9.35;;;;;;;10.73;77.84;102266.34;5111850;28;20486;-67
2021/10/13 09:42:41;;;;;;;27.20;8.93;;;;;;;10.80;78.18;102266.69;5101827;28;20046;-67
2021/10/13 09:45:11;;;;;;;23.95;9.48;;;;;;;11.00;79.40;102259.84;5103209;28;20049;-68
2021/10/13 09:47:39;;;;;;;18.50;9.50;;;;;;;11.19;79.43;102253.09;5106300;28;20097;-67
2021/10/13 09:50:08;;;;;;;23.17;8.15;;;;;;;11.21;77.10;102257.31;5098505;28;20041;-68
2021/10/13 09:52:35;;;;;;;21.98;9.52;;;;;;;11.34;79.11;102257.19;5106242;28;20043;-68
2021/10/13 09:55:10;;;;;;;25.52;9.85;;;;;;;11.56;79.02;102258.13;5109264;27;20039;-68
2021/10/13 09:57:42;;;;;;;18.42;7.50;;;;;;;11.79;74.84;102258.91;5111578;27;20523;-68
2021/10/13 10:00:13;;;;;;;20.17;7.22;;;;;;;11.99;73.90;102262.63;5101272;28;20044;-68
2021/10/13 10:02:49;;;;;;;22.33;7.28;;;;;;;12.00;73.66;102265.16;5121314;27;20063;-68
2021/10/13 10:05:20;;;;;;;16.73;7.90;;;;;;;12.24;73.80;102264.97;5107867;28;20116;-68
2021/10/13 10:08:04;;;;;;;22.13;7.82;;;;;;;13.36;71.53;102259.03;5101951;28;20095;-68
2021/10/13 10:10:32;;;;;;;19.45;6.70;;;;;;;13.52;66.67;102263.88;5104516;28;20036;-67
2021/10/13 10:13:03;;;;;;;15.15;6.60;;;;;;;14.01;66.39;102257.63;5099206;28;20048;-68
2021/10/13 10:15:42;;;;;;;17.27;7.13;;;;;;;14.29;66.37;102255.06;5129184;27;20054;-67
2021/10/13 10:18:33;;;;;;;24.20;6.78;;;;;;;15.31;61.90;102258.91;5109912;28;20071;-66
2021/10/13 10:21:23;;;;;;;20.75;6.45;;;;;;;15.16;61.83;102247.88;5100993;28;20080;-67
2021/10/13 10:23:54;;;;;;;15.80;5.65;;;;;;;16.68;57.92;102245.31;5108482;28;20044;-61
2021/10/13 10:26:31;;;;;;;19.52;6.05;;;;;;;16.56;60.04;102246.59;5096085;28;20040;-66
2021/10/13 10:29:01;;;;;;;18.90;5.85;;;;;;;16.43;56.62;102247.84;5104237;28;20036;-66
2021/10/13 10:39:58;;;;;;;16.88;5.45;;;;;;;14.11;65.47;102264.78;5096300;27;20382;-66
2021/10/13 10:42:54;;;;;;;16.63;5.07;;;;;;;13.68;68.38;102260.66;5120378;28;20067;-66
2021/10/13 10:45:24;;;;;;;18.35;4.90;;;;;;;13.31;69.14;102261.25;5101198;28;20485;-66
2021/10/13 10:47:56;;;;;;;15.73;4.88;;;;;;;12.86;70.29;102259.75;5091715;28;20032;-66
2021/10/13 10:50:44;;;;;;;18.83;5.25;;;;;;;12.50;70.75;102267.28;5058878;28;20108;-67
2021/10/13 10:53:21;;;;;;;15.98;4.78;;;;;;;12.15;71.06;102263.09;5088093;28;20143;-66
2021/10/13 10:55:50;;;;;;;18.70;5.30;;;;;;;12.02;73.39;102268.53;5086527;28;20107;-67
2021/10/13 10:58:24;;;;;;;22.33;4.93;;;;;;;12.19;73.57;102261.84;5089079;28;20040;-67
2021/10/13 11:01:10;;;;;;;18.38;5.10;;;;;;;12.13;74.00;102262.34;5088278;28;20048;-67
2021/10/13 11:03:41;;;;;;;22.52;5.20;;;;;;;12.20;73.01;102258.19;5080045;28;20532;-68
2021/10/13 11:06:30;;;;;;;19.75;5.10;;;;;;;12.29;72.42;102272.56;5088852;28;20436;-68
2021/10/13 11:09:18;;;;;;;17.67;4.72;;;;;;;12.33;72.96;102273.97;5103163;28;20044;-67
2021/10/13 11:12:12;;;;;;;20.98;5.07;;;;;;;12.21;73.01;102267.88;5087460;28;20067;-68
2021/10/13 11:14:53;;;;;;;21.02;4.82;;;;;;;12.34;74.38;102274.84;5088008;28;20050;-67
2021/10/13 11:17:27;;;;;;;23.17;5.25;;;;;;;13.24;71.78;102274.25;5087158;28;20044;-68
2021/10/13 11:20:07;;;;;;;15.55;4.90;;;;;;;14.08;67.90;102273.91;5085069;28;20044;-68
2021/10/13 11:22:35;;;;;;;15.27;4.72;;;;;;;14.76;64.98;102268.53;5089231;28;20086;-68
2021/10/13 11:25:12;;;;;;;19.52;5.28;;;;;;;15.25;63.15;102268.34;5085674;28;20051;-67
2021/10/13 11:27:40;;;;;;;16.77;4.65;;;;;;;16.08;59.89;102272.78;5086147;28;20036;-67
2021/10/13 11:30:15;;;;;;;17.17;4.72;;;;;;;14.78;63.26;102271.06;5085294;28;20044;-68
2021/10/13 11:32:42;;;;;;;18.95;3.83;;;;;;;14.48;64.10;102266.72;5087295;28;20048;-67
2021/10/13 11:35:09;;;;;;;19.45;4.60;;;;;;;14.39;64.17;102261.25;5085231;28;20036;-68
2021/10/13 11:37:36;;;;;;;18.15;3.97;;;;;;;13.52;65.97;102262.03;5086788;28;20052;-67
2021/10/13 11:40:04;;;;;;;15.02;4.03;;;;;;;13.59;67.38;102275.66;5082172;28;20047;-67
2021/10/13 11:42:32;;;;;;;14.00;3.90;;;;;;;14.21;67.36;102278.97;5083162;28;20067;-67
2021/10/13 11:44:58;;;;;;;13.57;3.95;;;;;;;13.98;66.55;102279.22;5079698;28;20070;-67
2021/10/13 11:47:34;;;;;;;18.42;4.93;;;;;;;13.71;67.06;102276.38;5080785;28;20040;-67
2021/10/13 11:50:10;;;;;;;17.95;4.00;;;;;;;13.19;67.45;102274.66;5075235;28;20032;-68
2021/10/13 11:52:40;;;;;;;20.45;4.03;;;;;;;12.84;68.51;102265.25;5070322;28;20493;-67